sensor_id;sensor_type;location;lat;lon;timestamp;pressure;altitude;pressure_sealevel;temperature;humidity
15634;BME280;14654;48.898;8.308;2023-02-13T00:00:31;102216.75;;;4.57;100.00
15634;BME280;14654;48.898;8.308;2023-02-13T00:02:57;102216.59;;;4.54;100.00
15634;BME280;14654;48.898;8.308;2023-02-13T00:05:22;102209.78;;;4.55;100.00
15634;BME280;14654;48.898;8.308;2023-02-13T00:07:48;102210.56;;;4.54;100.00
15634;BME280;14654;48.898;8.308;2023-02-13T00:10:13;102209.56;;;4.50;100.00
15634;BME280;14654;48.898;8.308;2023-02-13T00:12:39;102211.31;;;4.51;100.00
15634;BME280;14654;48.898;8.308;2023-02-13T00:15:06;102216.38;;;4.50;100.00
15634;BME280;14654;48.898;8.308;2023-02-13T00:17:31;102206.72;;;4.44;100.00
15634;BME280;14654;48.898;8.308;2023-02-13T00:19:57;102206.56;;;4.41;100.00
15634;BME280;14654;48.898;8.308;2023-02-13T00:22:22;102217.28;;;4.32;100.00
15634;BME280;14654;48.898;8.308;2023-02-13T00:24:48;102211.13;;;4.29;100.00
15634;BME280;14654;48.898;8.308;2023-02-13T00:27:13;102215.13;;;4.23;100.00
15634;BME280;14654;48.898;8.308;2023-02-13T00:29:39;102212.63;;;4.25;100.00
15634;BME280;14654;48.898;8.308;2023-02-13T00:32:04;102207.22;;;4.19;100.00
15634;BME280;14654;48.898;8.308;2023-02-13T00:34:29;102214.03;;;4.18;100.00
15634;BME280;14654;48.898;8.308;2023-02-13T00:36:55;102217.41;;;4.17;100.00
15634;BME280;14654;48.898;8.308;2023-02-13T00:39:20;102212.00;;;4.11;100.00
15634;BME280;14654;48.898;8.308;2023-02-13T00:41:45;102212.00;;;4.11;100.00
15634;BME280;14654;48.898;8.308;2023-02-13T00:44:11;102211.09;;;4.10;100.00
15634;BME280;14654;48.898;8.308;2023-02-13T00:46:36;102204.09;;;4.06;100.00
15634;BME280;14654;48.898;8.308;2023-02-13T00:49:03;102202.16;;;4.02;100.00
15634;BME280;14654;48.898;8.308;2023-02-13T00:51:28;102201.84;;;3.96;100.00
15634;BME280;14654;48.898;8.308;2023-02-13T00:53:53;102198.34;;;3.94;100.00
15634;BME280;14654;48.898;8.308;2023-02-13T00:56:18;102202.22;;;3.86;100.00
15634;BME280;14654;48.898;8.308;2023-02-13T00:58:44;102205.34;;;3.80;100.00
15634;BME280;14654;48.898;8.308;2023-02-13T01:01:09;102208.78;;;3.80;100.00
15634;BME280;14654;48.898;8.308;2023-02-13T01:03:35;102213.09;;;3.81;100.00
15634;BME280;14654;48.898;8.308;2023-02-13T01:06:00;102214.69;;;3.79;100.00
15634;BME280;14654;48.898;8.308;2023-02-13T01:08:26;102221.47;;;3.77;100.00
15634;BME280;14654;48.898;8.308;2023-02-13T01:10:53;102217.84;;;3.74;100.00
15634;BME280;14654;48.898;8.308;2023-02-13T01:13:18;102216.75;;;3.69;100.00
15634;BME280;14654;48.898;8.308;2023-02-13T01:15:44;102220.00;;;3.66;100.00
15634;BME280;14654;48.898;8.308;2023-02-13T01:18:14;102224.03;;;3.61;100.00
15634;BME280;14654;48.898;8.308;2023-02-13T01:20:41;102219.56;;;3.57;100.00
15634;BME280;14654;48.898;8.308;2023-02-13T01:23:08;102225.25;;;3.51;100.00
15634;BME280;14654;48.898;8.308;2023-02-13T01:25:33;102221.72;;;3.49;100.00
15634;BME280;14654;48.898;8.308;2023-02-13T01:27:58;102224.91;;;3.45;100.00
15634;BME280;14654;48.898;8.308;2023-02-13T01:30:24;102227.09;;;3.37;100.00
15634;BME280;14654;48.898;8.308;2023-02-13T01:32:49;102225.88;;;3.30;100.00
15634;BME280;14654;48.898;8.308;2023-02-13T01:35:15;102225.47;;;3.23;100.00
15634;BME280;14654;48.898;8.308;2023-02-13T01:37:41;102226.78;;;3.14;100.00
15634;BME280;14654;48.898;8.308;2023-02-13T01:40:09;102225.47;;;3.06;100.00
15634;BME280;14654;48.898;8.308;2023-02-13T01:42:36;102224.19;;;2.98;100.00
15634;BME280;14654;48.898;8.308;2023-02-13T01:45:26;102231.34;;;2.88;100.00
15634;BME280;14654;48.898;8.308;2023-02-13T01:47:55;102232.72;;;2.82;100.00
15634;BME280;14654;48.898;8.308;2023-02-13T01:50:31;102230.69;;;2.76;100.00
15634;BME280;14654;48.898;8.308;2023-02-13T01:53:18;102232.94;;;2.70;100.00
15634;BME280;14654;48.898;8.308;2023-02-13T01:55:54;102228.38;;;2.64;100.00
15634;BME280;14654;48.898;8.308;2023-02-13T01:58:24;102242.81;;;2.64;100.00
15634;BME280;14654;48.898;8.308;2023-02-13T02:00:50;102236.72;;;2.62;100.00
15634;BME280;14654;48.898;8.308;2023-02-13T02:03:31;102234.91;;;2.59;100.00
15634;BME280;14654;48.898;8.308;2023-02-13T02:05:58;102226.34;;;2.58;100.00
15634;BME280;14654;48.898;8.308;2023-02-13T02:08:24;102231.63;;;2.62;100.00
15634;BME280;14654;48.898;8.308;2023-02-13T02:10:50;102243.19;;;2.55;100.00
15634;BME280;14654;48.898;8.308;2023-02-13T02:13:19;102239.59;;;2.51;100.00
15634;BME280;14654;48.898;8.308;2023-02-13T02:15:45;102239.41;;;2.48;100.00
15634;BME280;14654;48.898;8.308;2023-02-13T02:18:17;102242.75;;;2.47;100.00
15634;BME280;14654;48.898;8.308;2023-02-13T02:45:39;102223.22;;;1.73;100.00
15634;BME280;14654;48.898;8.308;2023-02-13T02:51:30;102226.91;;;1.63;100.00
15634;BME280;14654;48.898;8.308;2023-02-13T02:54:12;102232.66;;;1.59;100.00
15634;BME280;14654;48.898;8.308;2023-02-13T02:57:03;102222.84;;;1.51;100.00
15634;BME280;14654;48.898;8.308;2023-02-13T02:59:31;102218.06;;;1.43;100.00
15634;BME280;14654;48.898;8.308;2023-02-13T03:02:16;102226.97;;;1.34;100.00
15634;BME280;14654;48.898;8.308;2023-02-13T03:05:01;102222.19;;;1.26;100.00
15634;BME280;14654;48.898;8.308;2023-02-13T03:07:46;102226.03;;;1.19;100.00
15634;BME280;14654;48.898;8.308;2023-02-13T03:10:24;102223.09;;;1.13;100.00
15634;BME280;14654;48.898;8.308;2023-02-13T03:13:30;102233.81;;;1.07;100.00
15634;BME280;14654;48.898;8.308;2023-02-13T03:15:59;102230.09;;;1.02;100.00
15634;BME280;14654;48.898;8.308;2023-02-13T03:18:49;102229.81;;;0.97;100.00
15634;BME280;14654;48.898;8.308;2023-02-13T03:21:52;102236.97;;;0.89;100.00
15634;BME280;14654;48.898;8.308;2023-02-13T03:35:48;102255.94;;;0.53;100.00
15634;BME280;14654;48.898;8.308;2023-02-13T03:41:42;102256.13;;;0.42;100.00
15634;BME280;14654;48.898;8.308;2023-02-13T03:44:15;102265.91;;;0.36;100.00
15634;BME280;14654;48.898;8.308;2023-02-13T03:46:46;102276.50;;;0.29;100.00
15634;BME280;14654;48.898;8.308;2023-02-13T03:49:20;102285.50;;;0.24;100.00
15634;BME280;14654;48.898;8.308;2023-02-13T03:52:15;102286.06;;;0.20;100.00
15634;BME280;14654;48.898;8.308;2023-02-13T03:55:04;102281.75;;;0.19;100.00
15634;BME280;14654;48.898;8.308;2023-02-13T03:57:51;102285.88;;;0.17;100.00
15634;BME280;14654;48.898;8.308;2023-02-13T04:00:40;102284.31;;;0.19;100.00
15634;BME280;14654;48.898;8.308;2023-02-13T04:03:16;102285.28;;;0.21;100.00
15634;BME280;14654;48.898;8.308;2023-02-13T04:05:48;102295.38;;;0.19;100.00
15634;BME280;14654;48.898;8.308;2023-02-13T04:08:14;102298.72;;;0.18;100.00
15634;BME280;14654;48.898;8.308;2023-02-13T04:10:58;102295.19;;;0.16;100.00
15634;BME280;14654;48.898;8.308;2023-02-13T04:13:31;102299.19;;;0.12;100.00
15634;BME280;14654;48.898;8.308;2023-02-13T04:16:06;102301.63;;;0.11;100.00
15634;BME280;14654;48.898;8.308;2023-02-13T04:18:34;102292.81;;;0.06;100.00
15634;BME280;14654;48.898;8.308;2023-02-13T04:21:03;102299.47;;;0.04;100.00
15634;BME280;14654;48.898;8.308;2023-02-13T04:23:29;102297.50;;;-0.01;100.00
15634;BME280;14654;48.898;8.308;2023-02-13T04:25:55;102293.09;;;-0.03;100.00
15634;BME280;14654;48.898;8.308;2023-02-13T04:28:21;102289.44;;;-0.07;100.00
15634;BME280;14654;48.898;8.308;2023-02-13T04:30:46;102301.06;;;-0.10;100.00
15634;BME280;14654;48.898;8.308;2023-02-13T04:33:12;102302.53;;;-0.14;100.00
15634;BME280;14654;48.898;8.308;2023-02-13T04:35:37;102296.38;;;-0.18;100.00
15634;BME280;14654;48.898;8.308;2023-02-13T04:38:03;102292.06;;;-0.19;100.00
15634;BME280;14654;48.898;8.308;2023-02-13T04:40:29;102295.25;;;-0.21;100.00
15634;BME280;14654;48.898;8.308;2023-02-13T04:42:54;102288.31;;;-0.24;100.00
15634;BME280;14654;48.898;8.308;2023-02-13T04:45:19;102288.88;;;-0.28;100.00
15634;BME280;14654;48.898;8.308;2023-02-13T04:47:52;102292.09;;;-0.31;100.00
15634;BME280;14654;48.898;8.308;2023-02-13T04:50:18;102288.56;;;-0.33;100.00
15634;BME280;14654;48.898;8.308;2023-02-13T04:52:43;102279.16;;;-0.34;100.00
15634;BME280;14654;48.898;8.308;2023-02-13T04:55:09;102286.03;;;-0.33;100.00
15634;BME280;14654;48.898;8.308;2023-02-13T04:57:34;102281.63;;;-0.35;100.00
15634;BME280;14654;48.898;8.308;2023-02-13T04:59:59;102277.31;;;-0.36;100.00
15634;BME280;14654;48.898;8.308;2023-02-13T05:02:25;102279.72;;;-0.38;100.00
15634;BME280;14654;48.898;8.308;2023-02-13T05:04:50;102284.72;;;-0.39;100.00
15634;BME280;14654;48.898;8.308;2023-02-13T05:07:15;102289.81;;;-0.39;100.00
15634;BME280;14654;48.898;8.308;2023-02-13T05:09:41;102286.41;;;-0.40;100.00
15634;BME280;14654;48.898;8.308;2023-02-13T05:12:06;102286.97;;;-0.44;100.00
15634;BME280;14654;48.898;8.308;2023-02-13T05:14:31;102282.56;;;-0.47;100.00
15634;BME280;14654;48.898;8.308;2023-02-13T05:16:57;102282.44;;;-0.48;100.00
15634;BME280;14654;48.898;8.308;2023-02-13T05:19:22;102278.03;;;-0.51;100.00
15634;BME280;14654;48.898;8.308;2023-02-13T05:21:47;102276.94;;;-0.54;100.00
15634;BME280;14654;48.898;8.308;2023-02-13T05:24:31;102281.81;;;-0.57;100.00
15634;BME280;14654;48.898;8.308;2023-02-13T05:26:56;102280.91;;;-0.58;100.00
15634;BME280;14654;48.898;8.308;2023-02-13T05:29:22;102287.47;;;-0.62;100.00
15634;BME280;14654;48.898;8.308;2023-02-13T05:31:50;102285.59;;;-0.64;100.00
15634;BME280;14654;48.898;8.308;2023-02-13T05:34:16;102288.78;;;-0.67;100.00
15634;BME280;14654;48.898;8.308;2023-02-13T05:36:41;102288.69;;;-0.68;100.00
15634;BME280;14654;48.898;8.308;2023-02-13T05:39:07;102285.28;;;-0.69;100.00
15634;BME280;14654;48.898;8.308;2023-02-13T05:41:32;102285.28;;;-0.69;100.00
15634;BME280;14654;48.898;8.308;2023-02-13T05:43:57;102282.75;;;-0.69;100.00
15634;BME280;14654;48.898;8.308;2023-02-13T05:46:23;102289.47;;;-0.69;100.00
15634;BME280;14654;48.898;8.308;2023-02-13T05:48:48;102286.72;;;-0.72;100.00
15634;BME280;14654;48.898;8.308;2023-02-13T05:51:13;102284.94;;;-0.73;100.00
15634;BME280;14654;48.898;8.308;2023-02-13T05:53:39;102285.63;;;-0.76;100.00
15634;BME280;14654;48.898;8.308;2023-02-13T05:56:05;102287.31;;;-0.77;100.00
15634;BME280;14654;48.898;8.308;2023-02-13T05:58:31;102286.41;;;-0.77;100.00
15634;BME280;14654;48.898;8.308;2023-02-13T06:00:57;102293.03;;;-0.79;100.00
15634;BME280;14654;48.898;8.308;2023-02-13T06:03:24;102289.63;;;-0.80;100.00
15634;BME280;14654;48.898;8.308;2023-02-13T06:05:49;102289.50;;;-0.81;100.00
15634;BME280;14654;48.898;8.308;2023-02-13T06:08:15;102291.06;;;-0.83;100.00
15634;BME280;14654;48.898;8.308;2023-02-13T06:10:40;102279.91;;;-0.85;100.00
15634;BME280;14654;48.898;8.308;2023-02-13T06:13:05;102285.78;;;-0.86;100.00
15634;BME280;14654;48.898;8.308;2023-02-13T06:15:31;102289.84;;;-0.88;100.00
15634;BME280;14654;48.898;8.308;2023-02-13T06:17:56;102289.72;;;-0.90;100.00
15634;BME280;14654;48.898;8.308;2023-02-13T06:20:21;102287.09;;;-0.92;100.00
15634;BME280;14654;48.898;8.308;2023-02-13T06:22:48;102290.41;;;-0.93;100.00
15634;BME280;14654;48.898;8.308;2023-02-13T06:25:14;102288.78;;;-0.92;100.00
15634;BME280;14654;48.898;8.308;2023-02-13T06:27:39;102291.41;;;-0.90;100.00
15634;BME280;14654;48.898;8.308;2023-02-13T06:30:05;102292.28;;;-0.90;100.00
15634;BME280;14654;48.898;8.308;2023-02-13T06:32:31;102297.56;;;-0.87;100.00
15634;BME280;14654;48.898;8.308;2023-02-13T06:34:56;102291.06;;;-0.83;100.00
15634;BME280;14654;48.898;8.308;2023-02-13T06:37:21;102299.00;;;-0.79;100.00
15634;BME280;14654;48.898;8.308;2023-02-13T06:39:47;102297.66;;;-0.73;100.00
15634;BME280;14654;48.898;8.308;2023-02-13T06:42:12;102299.88;;;-0.66;100.00
15634;BME280;14654;48.898;8.308;2023-02-13T06:44:37;102296.19;;;-0.58;100.00
15634;BME280;14654;48.898;8.308;2023-02-13T06:47:03;102293.28;;;-0.51;100.00
15634;BME280;14654;48.898;8.308;2023-02-13T06:49:28;102305.63;;;-0.43;100.00
15634;BME280;14654;48.898;8.308;2023-02-13T06:51:53;102303.53;;;-0.37;100.00
15634;BME280;14654;48.898;8.308;2023-02-13T06:54:18;102302.28;;;-0.31;100.00
15634;BME280;14654;48.898;8.308;2023-02-13T06:56:44;102300.81;;;-0.27;100.00
15634;BME280;14654;48.898;8.308;2023-02-13T06:59:09;102308.75;;;-0.22;100.00
15634;BME280;14654;48.898;8.308;2023-02-13T07:01:34;102305.66;;;-0.18;100.00
15634;BME280;14654;48.898;8.308;2023-02-13T07:04:00;102302.63;;;-0.12;100.00
15634;BME280;14654;48.898;8.308;2023-02-13T07:06:25;102309.22;;;-0.03;100.00
15634;BME280;14654;48.898;8.308;2023-02-13T07:08:50;102315.03;;;0.08;100.00
15634;BME280;14654;48.898;8.308;2023-02-13T07:11:21;102316.63;;;0.20;100.00
15634;BME280;14654;48.898;8.308;2023-02-13T07:13:46;102325.75;;;0.29;100.00
15634;BME280;14654;48.898;8.308;2023-02-13T07:16:12;102322.06;;;0.38;100.00
15634;BME280;14654;48.898;8.308;2023-02-13T07:18:37;102326.84;;;0.47;100.00
15634;BME280;14654;48.898;8.308;2023-02-13T07:21:02;102333.56;;;0.58;100.00
15634;BME280;14654;48.898;8.308;2023-02-13T07:23:28;102335.13;;;0.69;100.00
15634;BME280;14654;48.898;8.308;2023-02-13T07:25:53;102337.47;;;0.80;100.00
15634;BME280;14654;48.898;8.308;2023-02-13T07:28:18;102340.63;;;0.89;100.00
15634;BME280;14654;48.898;8.308;2023-02-13T07:30:44;102342.97;;;0.99;100.00
15634;BME280;14654;48.898;8.308;2023-02-13T07:33:09;102345.22;;;1.08;100.00
15634;BME280;14654;48.898;8.308;2023-02-13T07:35:34;102350.03;;;1.17;100.00
15634;BME280;14654;48.898;8.308;2023-02-13T07:38:02;102349.59;;;1.24;100.00
15634;BME280;14654;48.898;8.308;2023-02-13T07:40:27;102345.88;;;1.32;100.00
15634;BME280;14654;48.898;8.308;2023-02-13T07:42:53;102344.47;;;1.37;100.00
15634;BME280;14654;48.898;8.308;2023-02-13T07:45:18;102348.19;;;1.43;100.00
15634;BME280;14654;48.898;8.308;2023-02-13T07:47:43;102352.00;;;1.49;100.00
15634;BME280;14654;48.898;8.308;2023-02-13T07:50:09;102348.34;;;1.59;100.00
15634;BME280;14654;48.898;8.308;2023-02-13T07:52:35;102353.34;;;1.71;100.00
15634;BME280;14654;48.898;8.308;2023-02-13T07:55:02;102356.63;;;1.83;100.00
15634;BME280;14654;48.898;8.308;2023-02-13T07:57:27;102357.16;;;1.93;100.00
15634;BME280;14654;48.898;8.308;2023-02-13T07:59:53;102356.06;;;2.03;100.00
15634;BME280;14654;48.898;8.308;2023-02-13T08:02:18;102363.38;;;2.11;100.00
15634;BME280;14654;48.898;8.308;2023-02-13T08:04:43;102362.13;;;2.20;100.00
15634;BME280;14654;48.898;8.308;2023-02-13T08:07:13;102361.00;;;2.29;100.00
15634;BME280;14654;48.898;8.308;2023-02-13T08:09:38;102364.91;;;2.38;100.00
15634;BME280;14654;48.898;8.308;2023-02-13T08:12:22;102358.56;;;2.46;100.00
15634;BME280;14654;48.898;8.308;2023-02-13T08:14:48;102352.91;;;2.52;100.00
15634;BME280;14654;48.898;8.308;2023-02-13T08:17:13;102362.59;;;2.57;100.00
15634;BME280;14654;48.898;8.308;2023-02-13T08:19:38;102366.44;;;2.64;100.00
15634;BME280;14654;48.898;8.308;2023-02-13T08:22:04;102360.84;;;2.71;100.00
15634;BME280;14654;48.898;8.308;2023-02-13T08:24:29;102356.00;;;2.76;100.00
15634;BME280;14654;48.898;8.308;2023-02-13T08:26:55;102358.97;;;2.84;100.00
15634;BME280;14654;48.898;8.308;2023-02-13T08:29:20;102362.75;;;2.90;100.00
15634;BME280;14654;48.898;8.308;2023-02-13T08:31:46;102367.34;;;2.96;100.00
15634;BME280;14654;48.898;8.308;2023-02-13T08:34:11;102356.59;;;3.02;100.00
15634;BME280;14654;48.898;8.308;2023-02-13T08:36:37;102366.34;;;3.09;100.00
15634;BME280;14654;48.898;8.308;2023-02-13T08:39:02;102366.69;;;3.15;100.00
15634;BME280;14654;48.898;8.308;2023-02-13T08:41:27;102358.53;;;3.23;100.00
15634;BME280;14654;48.898;8.308;2023-02-13T08:43:53;102362.41;;;3.31;100.00
15634;BME280;14654;48.898;8.308;2023-02-13T08:46:19;102364.50;;;3.38;100.00
15634;BME280;14654;48.898;8.308;2023-02-13T08:48:45;102366.69;;;3.47;100.00
15634;BME280;14654;48.898;8.308;2023-02-13T08:51:12;102356.78;;;3.53;100.00
15634;BME280;14654;48.898;8.308;2023-02-13T08:53:38;102359.66;;;3.59;100.00
15634;BME280;14654;48.898;8.308;2023-02-13T08:56:04;102358.38;;;3.68;100.00
15634;BME280;14654;48.898;8.308;2023-02-13T08:58:29;102365.41;;;3.72;100.00
15634;BME280;14654;48.898;8.308;2023-02-13T09:00:55;102360.47;;;3.75;100.00
15634;BME280;14654;48.898;8.308;2023-02-13T09:03:20;102370.00;;;3.77;100.00
15634;BME280;14654;48.898;8.308;2023-02-13T09:05:46;102363.34;;;3.81;100.00
15634;BME280;14654;48.898;8.308;2023-02-13T09:08:14;102367.13;;;3.88;100.00
15634;BME280;14654;48.898;8.308;2023-02-13T09:10:42;102365.13;;;3.99;100.00
15634;BME280;14654;48.898;8.308;2023-02-13T09:13:10;102362.69;;;4.02;100.00
15634;BME280;14654;48.898;8.308;2023-02-13T09:15:39;102366.31;;;4.05;100.00
15634;BME280;14654;48.898;8.308;2023-02-13T09:18:05;102359.66;;;4.09;100.00
15634;BME280;14654;48.898;8.308;2023-02-13T09:20:30;102361.63;;;4.15;100.00
15634;BME280;14654;48.898;8.308;2023-02-13T09:22:55;102353.22;;;4.17;100.00
15634;BME280;14654;48.898;8.308;2023-02-13T09:25:21;102361.97;;;4.21;100.00
15634;BME280;14654;48.898;8.308;2023-02-13T09:27:46;102355.38;;;4.26;100.00
15634;BME280;14654;48.898;8.308;2023-02-13T09:30:12;102360.88;;;4.34;100.00
15634;BME280;14654;48.898;8.308;2023-02-13T09:32:47;102363.81;;;4.41;100.00
15634;BME280;14654;48.898;8.308;2023-02-13T09:35:12;102370.13;;;4.48;100.00
15634;BME280;14654;48.898;8.308;2023-02-13T09:37:39;102373.09;;;4.56;100.00
15634;BME280;14654;48.898;8.308;2023-02-13T09:40:09;102377.72;;;4.63;100.00
15634;BME280;14654;48.898;8.308;2023-02-13T09:42:42;102378.75;;;4.67;100.00
15634;BME280;14654;48.898;8.308;2023-02-13T09:45:11;102370.41;;;4.71;100.00
15634;BME280;14654;48.898;8.308;2023-02-13T09:47:42;102383.38;;;4.74;100.00
15634;BME280;14654;48.898;8.308;2023-02-13T09:50:25;102378.47;;;4.79;100.00
15634;BME280;14654;48.898;8.308;2023-02-13T09:52:54;102379.66;;;4.85;100.00
15634;BME280;14654;48.898;8.308;2023-02-13T09:55:34;102380.66;;;4.89;100.00
15634;BME280;14654;48.898;8.308;2023-02-13T09:58:17;102374.38;;;4.82;100.00
15634;BME280;14654;48.898;8.308;2023-02-13T10:00:50;102386.16;;;4.79;100.00
15634;BME280;14654;48.898;8.308;2023-02-13T10:03:20;102387.03;;;4.79;100.00
15634;BME280;14654;48.898;8.308;2023-02-13T10:06:07;102392.09;;;4.78;100.00
15634;BME280;14654;48.898;8.308;2023-02-13T10:09:05;102389.31;;;4.73;100.00
15634;BME280;14654;48.898;8.308;2023-02-13T10:19:42;102393.28;;;4.66;100.00
15634;BME280;14654;48.898;8.308;2023-02-13T10:22:13;102394.22;;;4.68;100.00
15634;BME280;14654;48.898;8.308;2023-02-13T10:27:36;102390.59;;;4.65;100.00
15634;BME280;14654;48.898;8.308;2023-02-13T10:35:23;102391.28;;;4.61;100.00
15634;BME280;14654;48.898;8.308;2023-02-13T10:37:54;102387.09;;;4.63;100.00
15634;BME280;14654;48.898;8.308;2023-02-13T10:40:27;102395.41;;;4.75;100.00
15634;BME280;14654;48.898;8.308;2023-02-13T10:52:14;102385.56;;;5.02;100.00
15634;BME280;14654;48.898;8.308;2023-02-13T10:57:43;102369.66;;;5.28;100.00
15634;BME280;14654;48.898;8.308;2023-02-13T11:00:26;102369.56;;;5.44;100.00
15634;BME280;14654;48.898;8.308;2023-02-13T11:02:56;102372.00;;;5.61;100.00
15634;BME280;14654;48.898;8.308;2023-02-13T11:05:40;102371.09;;;5.78;100.00
15634;BME280;14654;48.898;8.308;2023-02-13T11:10:41;102373.28;;;6.08;100.00
15634;BME280;14654;48.898;8.308;2023-02-13T11:13:24;102361.94;;;6.24;100.00
15634;BME280;14654;48.898;8.308;2023-02-13T11:16:05;102368.41;;;6.36;100.00
15634;BME280;14654;48.898;8.308;2023-02-13T11:18:39;102374.09;;;6.48;100.00
15634;BME280;14654;48.898;8.308;2023-02-13T11:21:20;102366.88;;;6.61;100.00
15634;BME280;14654;48.898;8.308;2023-02-13T11:23:49;102358.94;;;6.77;100.00
15634;BME280;14654;48.898;8.308;2023-02-13T11:26:30;102366.25;;;6.89;100.00
15634;BME280;14654;48.898;8.308;2023-02-13T11:28:59;102359.97;;;7.04;100.00
15634;BME280;14654;48.898;8.308;2023-02-13T11:31:43;102355.97;;;7.10;100.00
15634;BME280;14654;48.898;8.308;2023-02-13T11:36:50;102353.91;;;7.01;100.00
15634;BME280;14654;48.898;8.308;2023-02-13T11:39:19;102349.78;;;7.07;100.00
15634;BME280;14654;48.898;8.308;2023-02-13T11:41:45;102339.88;;;7.16;100.00
15634;BME280;14654;48.898;8.308;2023-02-13T11:44:31;102337.47;;;7.21;99.88
15634;BME280;14654;48.898;8.308;2023-02-13T11:46:59;102330.72;;;7.24;99.48
15634;BME280;14654;48.898;8.308;2023-02-13T11:49:28;102334.19;;;7.25;99.09
15634;BME280;14654;48.898;8.308;2023-02-13T11:51:59;102338.97;;;7.38;98.97
15634;BME280;14654;48.898;8.308;2023-02-13T11:54:32;102330.78;;;7.50;98.64
15634;BME280;14654;48.898;8.308;2023-02-13T11:57:16;102331.00;;;7.55;97.95
15634;BME280;14654;48.898;8.308;2023-02-13T11:59:45;102333.84;;;7.62;97.45
15634;BME280;14654;48.898;8.308;2023-02-13T12:04:39;102327.63;;;7.57;96.76
15634;BME280;14654;48.898;8.308;2023-02-13T12:07:19;102328.63;;;7.61;96.79
15634;BME280;14654;48.898;8.308;2023-02-13T12:09:50;102326.44;;;7.72;96.94
15634;BME280;14654;48.898;8.308;2023-02-13T12:12:21;102319.13;;;7.84;96.66
15634;BME280;14654;48.898;8.308;2023-02-13T12:14:49;102319.94;;;7.83;96.16
15634;BME280;14654;48.898;8.308;2023-02-13T12:17:19;102317.06;;;7.74;96.10
15634;BME280;14654;48.898;8.308;2023-02-13T12:19:46;102318.31;;;7.61;96.58
15634;BME280;14654;48.898;8.308;2023-02-13T12:32:58;102317.31;;;6.88;98.93
15634;BME280;14654;48.898;8.308;2023-02-13T12:38:19;102308.16;;;6.73;99.67
15634;BME280;14654;48.898;8.308;2023-02-13T12:43:58;102294.19;;;6.66;100.00
15634;BME280;14654;48.898;8.308;2023-02-13T12:46:34;102293.06;;;6.60;100.00
15634;BME280;14654;48.898;8.308;2023-02-13T13:05:25;102290.00;;;6.47;100.00
15634;BME280;14654;48.898;8.308;2023-02-13T13:08:07;102290.00;;;6.47;100.00
15634;BME280;14654;48.898;8.308;2023-02-13T13:15:59;102285.69;;;6.46;100.00
15634;BME280;14654;48.898;8.308;2023-02-13T13:21:25;102283.91;;;6.45;100.00
15634;BME280;14654;48.898;8.308;2023-02-13T13:23:57;102283.97;;;6.47;100.00
15634;BME280;14654;48.898;8.308;2023-02-13T13:26:33;102285.81;;;6.49;100.00
15634;BME280;14654;48.898;8.308;2023-02-13T13:29:04;102283.28;;;6.51;100.00
15634;BME280;14654;48.898;8.308;2023-02-13T13:31:33;102272.94;;;6.49;100.00
15634;BME280;14654;48.898;8.308;2023-02-13T13:34:01;102277.31;;;6.52;100.00
15634;BME280;14654;48.898;8.308;2023-02-13T13:36:52;102278.19;;;6.52;100.00
15634;BME280;14654;48.898;8.308;2023-02-13T13:39:31;102274.72;;;6.50;100.00
15634;BME280;14654;48.898;8.308;2023-02-13T13:49:56;102273.19;;;6.55;100.00
15634;BME280;14654;48.898;8.308;2023-02-13T13:52:33;102271.50;;;6.56;100.00
15634;BME280;14654;48.898;8.308;2023-02-13T13:55:00;102271.41;;;6.54;100.00
15634;BME280;14654;48.898;8.308;2023-02-13T14:02:39;102268.03;;;6.55;100.00
15634;BME280;14654;48.898;8.308;2023-02-13T14:05:31;102262.13;;;6.58;100.00
15634;BME280;14654;48.898;8.308;2023-02-13T14:08:02;102265.59;;;6.59;100.00
15634;BME280;14654;48.898;8.308;2023-02-13T14:23:32;102264.50;;;6.53;100.00
15634;BME280;14654;48.898;8.308;2023-02-13T14:31:31;102250.72;;;6.51;100.00
15634;BME280;14654;48.898;8.308;2023-02-13T14:36:45;102240.06;;;6.42;100.00
15634;BME280;14654;48.898;8.308;2023-02-13T14:39:30;102233.94;;;6.38;100.00
15634;BME280;14654;48.898;8.308;2023-02-13T14:41:59;102235.50;;;6.35;100.00
15634;BME280;14654;48.898;8.308;2023-02-13T14:44:36;102232.88;;;6.33;100.00
15634;BME280;14654;48.898;8.308;2023-02-13T14:47:11;102231.91;;;6.31;100.00
15634;BME280;14654;48.898;8.308;2023-02-13T14:49:40;102228.41;;;6.29;100.00
15634;BME280;14654;48.898;8.308;2023-02-13T14:52:14;102219.78;;;6.27;100.00
15634;BME280;14654;48.898;8.308;2023-02-13T14:54:46;102210.19;;;6.23;100.00
15634;BME280;14654;48.898;8.308;2023-02-13T14:57:17;102219.56;;;6.22;100.00
15634;BME280;14654;48.898;8.308;2023-02-13T14:59:49;102214.25;;;6.18;100.00
15634;BME280;14654;48.898;8.308;2023-02-13T15:02:25;102215.06;;;6.17;100.00
15634;BME280;14654;48.898;8.308;2023-02-13T15:05:05;102208.13;;;6.14;100.00
15634;BME280;14654;48.898;8.308;2023-02-13T15:07:37;102204.56;;;6.10;100.00
15634;BME280;14654;48.898;8.308;2023-02-13T15:12:36;102198.38;;;6.07;100.00
15634;BME280;14654;48.898;8.308;2023-02-13T15:15:24;102203.47;;;6.05;100.00
15634;BME280;14654;48.898;8.308;2023-02-13T15:17:52;102202.53;;;6.03;100.00
15634;BME280;14654;48.898;8.308;2023-02-13T15:20:31;102198.16;;;6.01;100.00
15634;BME280;14654;48.898;8.308;2023-02-13T15:22:57;102201.44;;;5.98;100.00
15634;BME280;14654;48.898;8.308;2023-02-13T15:25:38;102193.66;;;5.97;100.00
15634;BME280;14654;48.898;8.308;2023-02-13T15:28:06;102203.09;;;5.96;100.00
15634;BME280;14654;48.898;8.308;2023-02-13T15:30:34;102202.19;;;5.95;100.00
15634;BME280;14654;48.898;8.308;2023-02-13T15:33:20;102198.66;;;5.93;100.00
15634;BME280;14654;48.898;8.308;2023-02-13T15:35:53;102195.97;;;5.90;100.00
15634;BME280;14654;48.898;8.308;2023-02-13T15:40:49;102191.41;;;5.83;100.00